<?xml version="1.0" encoding="UTF-8" standalone="no" ?>
<gpx xmlns="http://www.topografix.com/GPX/1/1" xmlns:xsi="http://www.w3.org/2001/XMLSchema-instance" xsi:schemaLocation="http://www.topografix.com/GPX/1/1 http://www.topografix.com/GPX/1/1/gpx.xsd" version="1.1" creator="VisuGPX - https://www.visugpx.com">
  <metadata>
    <name>Edirne-Sarajevo</name>
  </metadata>
  <trk>
    <name><![CDATA[Tour d'Europe: étape 617]]></name>
    <extensions>
      <line xmlns="http://www.topografix.com/GPX/gpx_style/0/2">
        <color>00FFFF</color>
        <width>4</width>
      </line>
    </extensions>
    <trkseg>
      <trkpt lat="42.14748" lon="24.75414">
        <ele>237.94926</ele>
        <time>2022-03-07T06:57:35.630Z</time>
      </trkpt>
      <trkpt lat="42.14777" lon="24.75504">
        <ele>236.260994</ele>
        <time>2022-03-07T07:03:22.462Z</time>
      </trkpt>
      <trkpt lat="42.14962" lon="24.75539">
        <ele>220.364287</ele>
        <time>2022-03-07T07:04:26.458Z</time>
      </trkpt>
      <trkpt lat="42.15158" lon="24.75446">
        <ele>214.622041</ele>
        <time>2022-03-07T07:05:31.444Z</time>
      </trkpt>
      <trkpt lat="42.15349" lon="24.75427">
        <ele>215.884348</ele>
        <time>2022-03-07T07:06:31.493Z</time>
      </trkpt>
      <trkpt lat="42.15427" lon="24.75228">
        <ele>208.804697</ele>
        <time>2022-03-07T07:07:45.474Z</time>
      </trkpt>
      <trkpt lat="42.15392" lon="24.74948">
        <ele>202.325776</ele>
        <time>2022-03-07T07:08:52.466Z</time>
      </trkpt>
      <trkpt lat="42.15344" lon="24.74637">
        <ele>200.576779</ele>
        <time>2022-03-07T07:09:50.462Z</time>
      </trkpt>
      <trkpt lat="42.1529" lon="24.74347">
        <ele>204.889417</ele>
        <time>2022-03-07T07:10:53.497Z</time>
      </trkpt>
      <trkpt lat="42.15271" lon="24.74056">
        <ele>209.780349</ele>
        <time>2022-03-07T07:11:43.445Z</time>
      </trkpt>
      <trkpt lat="42.15272" lon="24.73764">
        <ele>204.091506</ele>
        <time>2022-03-07T07:12:41.458Z</time>
      </trkpt>
      <trkpt lat="42.15268" lon="24.73473">
        <ele>207.646023</ele>
        <time>2022-03-07T07:13:35.443Z</time>
      </trkpt>
      <trkpt lat="42.15273" lon="24.73194">
        <ele>209.226496</ele>
        <time>2022-03-07T07:14:22.463Z</time>
      </trkpt>
      <trkpt lat="42.15234" lon="24.72955">
        <ele>209.378107</ele>
        <time>2022-03-07T07:15:25.463Z</time>
      </trkpt>
      <trkpt lat="42.15314" lon="24.731">
        <ele>211.394838</ele>
        <time>2022-03-07T07:16:38.474Z</time>
      </trkpt>
      <trkpt lat="42.15521" lon="24.73102">
        <ele>210.906098</ele>
        <time>2022-03-07T07:17:39.479Z</time>
      </trkpt>
      <trkpt lat="42.15726" lon="24.7308">
        <ele>209.236863</ele>
        <time>2022-03-07T07:18:39.498Z</time>
      </trkpt>
      <trkpt lat="42.15945" lon="24.73032">
        <ele>209.140125</ele>
        <time>2022-03-07T07:20:05.463Z</time>
      </trkpt>
      <trkpt lat="42.16168" lon="24.72956">
        <ele>209.794016</ele>
        <time>2022-03-07T07:22:20.469Z</time>
      </trkpt>
      <trkpt lat="42.16323" lon="24.7274">
        <ele>208.422081</ele>
        <time>2022-03-07T07:23:02.509Z</time>
      </trkpt>
      <trkpt lat="42.16481" lon="24.72524">
        <ele>213.870005</ele>
        <time>2022-03-07T07:24:00.474Z</time>
      </trkpt>
      <trkpt lat="42.16654" lon="24.72316">
        <ele>213.759669</ele>
        <time>2022-03-07T07:24:56.531Z</time>
      </trkpt>
      <trkpt lat="42.16815" lon="24.72127">
        <ele>209.814654</ele>
        <time>2022-03-07T07:25:44.463Z</time>
      </trkpt>
      <trkpt lat="42.16985" lon="24.71925">
        <ele>210.768421</ele>
        <time>2022-03-07T07:26:36.493Z</time>
      </trkpt>
      <trkpt lat="42.17132" lon="24.71718">
        <ele>217.463773</ele>
        <time>2022-03-07T07:29:17.458Z</time>
      </trkpt>
      <trkpt lat="42.17273" lon="24.71502">
        <ele>213.774307</ele>
        <time>2022-03-07T07:30:04.484Z</time>
      </trkpt>
      <trkpt lat="42.17402" lon="24.71301">
        <ele>208.391308</ele>
        <time>2022-03-07T07:30:47.485Z</time>
      </trkpt>
      <trkpt lat="42.17558" lon="24.71047">
        <ele>211.230828</ele>
        <time>2022-03-07T07:31:43.500Z</time>
      </trkpt>
      <trkpt lat="42.17706" lon="24.70817">
        <ele>211.859265</ele>
        <time>2022-03-07T07:32:34.474Z</time>
      </trkpt>
      <trkpt lat="42.17868" lon="24.70567">
        <ele>209.224724</ele>
        <time>2022-03-07T07:33:31.461Z</time>
      </trkpt>
      <trkpt lat="42.18018" lon="24.70429">
        <ele>208.331216</ele>
        <time>2022-03-07T07:34:24.459Z</time>
      </trkpt>
      <trkpt lat="42.1811" lon="24.70185">
        <ele>209.271019</ele>
        <time>2022-03-07T07:35:10.511Z</time>
      </trkpt>
      <trkpt lat="42.18256" lon="24.6995">
        <ele>213.93305</ele>
        <time>2022-03-07T07:36:04.514Z</time>
      </trkpt>
      <trkpt lat="42.18406" lon="24.69717">
        <ele>213.671584</ele>
        <time>2022-03-07T07:36:57.466Z</time>
      </trkpt>
      <trkpt lat="42.18566" lon="24.69461">
        <ele>215.719138</ele>
        <time>2022-03-07T07:37:55.460Z</time>
      </trkpt>
      <trkpt lat="42.18727" lon="24.69214">
        <ele>212.981052</ele>
        <time>2022-03-07T07:38:51.470Z</time>
      </trkpt>
      <trkpt lat="42.18885" lon="24.68962">
        <ele>214.035813</ele>
        <time>2022-03-07T07:39:48.477Z</time>
      </trkpt>
      <trkpt lat="42.1904" lon="24.68716">
        <ele>215.176685</ele>
        <time>2022-03-07T07:40:45.479Z</time>
      </trkpt>
      <trkpt lat="42.19194" lon="24.68474">
        <ele>215.704382</ele>
        <time>2022-03-07T07:41:39.471Z</time>
      </trkpt>
      <trkpt lat="42.19352" lon="24.68224">
        <ele>218.164061</ele>
        <time>2022-03-07T07:42:36.461Z</time>
      </trkpt>
      <trkpt lat="42.19511" lon="24.67972">
        <ele>220.20878</ele>
        <time>2022-03-07T07:43:35.465Z</time>
      </trkpt>
      <trkpt lat="42.1967" lon="24.67728">
        <ele>219.753267</ele>
        <time>2022-03-07T07:44:33.508Z</time>
      </trkpt>
      <trkpt lat="42.1982" lon="24.67491">
        <ele>217.097652</ele>
        <time>2022-03-07T07:45:31.485Z</time>
      </trkpt>
      <trkpt lat="42.19981" lon="24.67237">
        <ele>217.75715</ele>
        <time>2022-03-07T07:46:28.484Z</time>
      </trkpt>
      <trkpt lat="42.20123" lon="24.67016">
        <ele>220.600641</ele>
        <time>2022-03-07T07:47:24.472Z</time>
      </trkpt>
      <trkpt lat="42.20279" lon="24.66834">
        <ele>224.870029</ele>
        <time>2022-03-07T07:48:38.465Z</time>
      </trkpt>
      <trkpt lat="42.2035" lon="24.66544">
        <ele>220.565189</ele>
        <time>2022-03-07T07:49:19.463Z</time>
      </trkpt>
      <trkpt lat="42.20413" lon="24.6629">
        <ele>220.114636</ele>
        <time>2022-03-07T07:50:03.484Z</time>
      </trkpt>
      <trkpt lat="42.2053" lon="24.65986">
        <ele>219.457841</ele>
        <time>2022-03-07T07:51:03.466Z</time>
      </trkpt>
      <trkpt lat="42.20643" lon="24.6569">
        <ele>220.340217</ele>
        <time>2022-03-07T07:52:03.476Z</time>
      </trkpt>
      <trkpt lat="42.20731" lon="24.65403">
        <ele>220.789704</ele>
        <time>2022-03-07T07:53:00.478Z</time>
      </trkpt>
      <trkpt lat="42.20785" lon="24.65078">
        <ele>220.879959</ele>
        <time>2022-03-07T07:53:58.473Z</time>
      </trkpt>
      <trkpt lat="42.20902" lon="24.64787">
        <ele>223.518832</ele>
        <time>2022-03-07T07:54:57.483Z</time>
      </trkpt>
      <trkpt lat="42.2105" lon="24.6451">
        <ele>222.724762</ele>
        <time>2022-03-07T07:55:57.483Z</time>
      </trkpt>
      <trkpt lat="42.21197" lon="24.64235">
        <ele>221.125273</ele>
        <time>2022-03-07T07:56:57.465Z</time>
      </trkpt>
      <trkpt lat="42.21343" lon="24.63965">
        <ele>221.673412</ele>
        <time>2022-03-07T07:57:57.488Z</time>
      </trkpt>
      <trkpt lat="42.21523" lon="24.63737">
        <ele>223.556674</ele>
        <time>2022-03-07T07:58:57.487Z</time>
      </trkpt>
      <trkpt lat="42.21697" lon="24.63539">
        <ele>226.640386</ele>
        <time>2022-03-07T07:59:52.483Z</time>
      </trkpt>
      <trkpt lat="42.21891" lon="24.63324">
        <ele>224.743204</ele>
        <time>2022-03-07T08:00:52.481Z</time>
      </trkpt>
      <trkpt lat="42.22078" lon="24.63109">
        <ele>226.707978</ele>
        <time>2022-03-07T08:01:52.473Z</time>
      </trkpt>
      <trkpt lat="42.22263" lon="24.62902">
        <ele>227.778091</ele>
        <time>2022-03-07T08:02:51.474Z</time>
      </trkpt>
      <trkpt lat="42.22446" lon="24.62689">
        <ele>227.581662</ele>
        <time>2022-03-07T08:03:51.482Z</time>
      </trkpt>
      <trkpt lat="42.22586" lon="24.62427">
        <ele>229.208571</ele>
        <time>2022-03-07T08:04:51.473Z</time>
      </trkpt>
      <trkpt lat="42.22695" lon="24.6218">
        <ele>228.353161</ele>
        <time>2022-03-07T08:05:48.471Z</time>
      </trkpt>
      <trkpt lat="42.22816" lon="24.61917">
        <ele>227.902328</ele>
        <time>2022-03-07T08:06:48.469Z</time>
      </trkpt>
      <trkpt lat="42.22934" lon="24.61661">
        <ele>227.209251</ele>
        <time>2022-03-07T08:07:48.472Z</time>
      </trkpt>
      <trkpt lat="42.23051" lon="24.61406">
        <ele>227.650141</ele>
        <time>2022-03-07T08:08:48.487Z</time>
      </trkpt>
      <trkpt lat="42.2317" lon="24.61146">
        <ele>227.433044</ele>
        <time>2022-03-07T08:09:48.467Z</time>
      </trkpt>
      <trkpt lat="42.2329" lon="24.60884">
        <ele>227.465858</ele>
        <time>2022-03-07T08:10:48.509Z</time>
      </trkpt>
      <trkpt lat="42.2341" lon="24.60624">
        <ele>228.775461</ele>
        <time>2022-03-07T08:11:48.480Z</time>
      </trkpt>
      <trkpt lat="42.23522" lon="24.60376">
        <ele>227.849323</ele>
        <time>2022-03-07T08:12:45.484Z</time>
      </trkpt>
      <trkpt lat="42.2364" lon="24.60121">
        <ele>227.964832</ele>
        <time>2022-03-07T08:13:45.489Z</time>
      </trkpt>
      <trkpt lat="42.23758" lon="24.59863">
        <ele>228.438379</ele>
        <time>2022-03-07T08:14:45.472Z</time>
      </trkpt>
      <trkpt lat="42.23877" lon="24.59606">
        <ele>228.15524</ele>
        <time>2022-03-07T08:15:45.474Z</time>
      </trkpt>
      <trkpt lat="42.23988" lon="24.59361">
        <ele>229.312419</ele>
        <time>2022-03-07T08:16:45.478Z</time>
      </trkpt>
      <trkpt lat="42.24106" lon="24.59107">
        <ele>228.393676</ele>
        <time>2022-03-07T08:17:45.475Z</time>
      </trkpt>
      <trkpt lat="42.24219" lon="24.58857">
        <ele>230.914122</ele>
        <time>2022-03-07T08:18:42.481Z</time>
      </trkpt>
      <trkpt lat="42.2434" lon="24.58597">
        <ele>231.884556</ele>
        <time>2022-03-07T08:19:42.481Z</time>
      </trkpt>
      <trkpt lat="42.24498" lon="24.58361">
        <ele>231.549261</ele>
        <time>2022-03-07T08:20:42.473Z</time>
      </trkpt>
      <trkpt lat="42.24659" lon="24.58132">
        <ele>232.486218</ele>
        <time>2022-03-07T08:21:38.478Z</time>
      </trkpt>
      <trkpt lat="42.24828" lon="24.57889">
        <ele>233.211599</ele>
        <time>2022-03-07T08:22:38.510Z</time>
      </trkpt>
      <trkpt lat="42.24997" lon="24.57647">
        <ele>233.203139</ele>
        <time>2022-03-07T08:23:38.516Z</time>
      </trkpt>
      <trkpt lat="42.25166" lon="24.57405">
        <ele>233.604405</ele>
        <time>2022-03-07T08:24:38.489Z</time>
      </trkpt>
      <trkpt lat="42.25326" lon="24.57176">
        <ele>234.296276</ele>
        <time>2022-03-07T08:25:35.526Z</time>
      </trkpt>
      <trkpt lat="42.25496" lon="24.56933">
        <ele>236.148705</ele>
        <time>2022-03-07T08:26:35.487Z</time>
      </trkpt>
      <trkpt lat="42.25662" lon="24.56697">
        <ele>237.491097</ele>
        <time>2022-03-07T08:27:35.510Z</time>
      </trkpt>
      <trkpt lat="42.25819" lon="24.56472">
        <ele>237.677549</ele>
        <time>2022-03-07T08:28:35.513Z</time>
      </trkpt>
      <trkpt lat="42.25968" lon="24.56255">
        <ele>237.868106</ele>
        <time>2022-03-07T08:29:35.492Z</time>
      </trkpt>
      <trkpt lat="42.2612" lon="24.5604">
        <ele>239.047675</ele>
        <time>2022-03-07T08:30:35.490Z</time>
      </trkpt>
      <trkpt lat="42.26267" lon="24.5583">
        <ele>239.23291</ele>
        <time>2022-03-07T08:31:35.482Z</time>
      </trkpt>
      <trkpt lat="42.26407" lon="24.55627">
        <ele>240.387804</ele>
        <time>2022-03-07T08:32:32.494Z</time>
      </trkpt>
      <trkpt lat="42.26565" lon="24.55404">
        <ele>241.356821</ele>
        <time>2022-03-07T08:33:32.489Z</time>
      </trkpt>
      <trkpt lat="42.26716" lon="24.55191">
        <ele>242.960148</ele>
        <time>2022-03-07T08:34:32.491Z</time>
      </trkpt>
      <trkpt lat="42.26882" lon="24.55004">
        <ele>244.428585</ele>
        <time>2022-03-07T08:35:32.503Z</time>
      </trkpt>
      <trkpt lat="42.27047" lon="24.54836">
        <ele>246.380912</ele>
        <time>2022-03-07T08:36:33.482Z</time>
      </trkpt>
      <trkpt lat="42.27167" lon="24.54681">
        <ele>247.399797</ele>
        <time>2022-03-07T08:58:20.485Z</time>
      </trkpt>
      <trkpt lat="42.26984" lon="24.54663">
        <ele>252.777944</ele>
        <time>2022-03-07T08:59:22.475Z</time>
      </trkpt>
      <trkpt lat="42.26756" lon="24.54682">
        <ele>255.52951</ele>
        <time>2022-03-07T09:00:19.498Z</time>
      </trkpt>
      <trkpt lat="42.26548" lon="24.54595">
        <ele>253.576966</ele>
        <time>2022-03-07T09:01:20.485Z</time>
      </trkpt>
      <trkpt lat="42.26346" lon="24.54412">
        <ele>253.434549</ele>
        <time>2022-03-07T09:02:20.500Z</time>
      </trkpt>
      <trkpt lat="42.26177" lon="24.54209">
        <ele>251.066592</ele>
        <time>2022-03-07T09:03:19.498Z</time>
      </trkpt>
      <trkpt lat="42.25969" lon="24.54086">
        <ele>255.798095</ele>
        <time>2022-03-07T09:04:19.486Z</time>
      </trkpt>
      <trkpt lat="42.25774" lon="24.53917">
        <ele>255.443437</ele>
        <time>2022-03-07T09:05:19.483Z</time>
      </trkpt>
      <trkpt lat="42.25653" lon="24.53671">
        <ele>244.322837</ele>
        <time>2022-03-07T09:06:17.486Z</time>
      </trkpt>
      <trkpt lat="42.25553" lon="24.53359">
        <ele>246.692142</ele>
        <time>2022-03-07T09:07:17.495Z</time>
      </trkpt>
      <trkpt lat="42.25453" lon="24.53055">
        <ele>247.789457</ele>
        <time>2022-03-07T09:08:17.530Z</time>
      </trkpt>
      <trkpt lat="42.25353" lon="24.52755">
        <ele>250.758289</ele>
        <time>2022-03-07T09:09:17.494Z</time>
      </trkpt>
      <trkpt lat="42.25314" lon="24.52441">
        <ele>255.576482</ele>
        <time>2022-03-07T09:10:17.509Z</time>
      </trkpt>
      <trkpt lat="42.25293" lon="24.52105">
        <ele>249.642286</ele>
        <time>2022-03-07T09:11:17.483Z</time>
      </trkpt>
      <trkpt lat="42.25275" lon="24.51791">
        <ele>246.823052</ele>
        <time>2022-03-07T09:12:14.487Z</time>
      </trkpt>
      <trkpt lat="42.25255" lon="24.51461">
        <ele>250.724057</ele>
        <time>2022-03-07T09:13:14.479Z</time>
      </trkpt>
      <trkpt lat="42.25236" lon="24.51129">
        <ele>250.589034</ele>
        <time>2022-03-07T09:14:14.477Z</time>
      </trkpt>
      <trkpt lat="42.25217" lon="24.50793">
        <ele>248.096308</ele>
        <time>2022-03-07T09:15:14.486Z</time>
      </trkpt>
      <trkpt lat="42.25198" lon="24.50479">
        <ele>251.347716</ele>
        <time>2022-03-07T09:16:12.497Z</time>
      </trkpt>
      <trkpt lat="42.25181" lon="24.50179">
        <ele>251.952449</ele>
        <time>2022-03-07T09:17:04.496Z</time>
      </trkpt>
      <trkpt lat="42.25161" lon="24.49842">
        <ele>248.285237</ele>
        <time>2022-03-07T09:18:03.496Z</time>
      </trkpt>
      <trkpt lat="42.25143" lon="24.49518">
        <ele>251.09064</ele>
        <time>2022-03-07T09:19:00.486Z</time>
      </trkpt>
      <trkpt lat="42.25124" lon="24.49184">
        <ele>254.281797</ele>
        <time>2022-03-07T09:20:00.495Z</time>
      </trkpt>
      <trkpt lat="42.25105" lon="24.48865">
        <ele>256.456574</ele>
        <time>2022-03-07T09:20:55.476Z</time>
      </trkpt>
      <trkpt lat="42.25107" lon="24.48556">
        <ele>254.756342</ele>
        <time>2022-03-07T09:21:47.477Z</time>
      </trkpt>
      <trkpt lat="42.25116" lon="24.48213">
        <ele>255.236099</ele>
        <time>2022-03-07T09:22:46.489Z</time>
      </trkpt>
      <trkpt lat="42.25124" lon="24.47873">
        <ele>256.524997</ele>
        <time>2022-03-07T09:23:46.490Z</time>
      </trkpt>
      <trkpt lat="42.25132" lon="24.47555">
        <ele>257.768658</ele>
        <time>2022-03-07T09:24:41.494Z</time>
      </trkpt>
      <trkpt lat="42.25138" lon="24.47234">
        <ele>260.161451</ele>
        <time>2022-03-07T09:25:37.481Z</time>
      </trkpt>
      <trkpt lat="42.25145" lon="24.46929">
        <ele>258.497995</ele>
        <time>2022-03-07T09:26:29.492Z</time>
      </trkpt>
      <trkpt lat="42.25154" lon="24.46617">
        <ele>258.645438</ele>
        <time>2022-03-07T09:27:23.495Z</time>
      </trkpt>
      <trkpt lat="42.25161" lon="24.46281">
        <ele>259.489513</ele>
        <time>2022-03-07T09:28:22.495Z</time>
      </trkpt>
      <trkpt lat="42.25169" lon="24.45942">
        <ele>260.926859</ele>
        <time>2022-03-07T09:29:22.501Z</time>
      </trkpt>
      <trkpt lat="42.25178" lon="24.45604">
        <ele>260.859168</ele>
        <time>2022-03-07T09:30:22.509Z</time>
      </trkpt>
      <trkpt lat="42.25187" lon="24.45293">
        <ele>264.272848</ele>
        <time>2022-03-07T09:31:19.506Z</time>
      </trkpt>
      <trkpt lat="42.25195" lon="24.44987">
        <ele>262.675198</ele>
        <time>2022-03-07T09:32:19.510Z</time>
      </trkpt>
      <trkpt lat="42.25206" lon="24.44668">
        <ele>264.750735</ele>
        <time>2022-03-07T09:33:19.497Z</time>
      </trkpt>
      <trkpt lat="42.2521" lon="24.4434">
        <ele>266.768306</ele>
        <time>2022-03-07T09:34:19.510Z</time>
      </trkpt>
      <trkpt lat="42.25194" lon="24.44019">
        <ele>270.92507</ele>
        <time>2022-03-07T09:35:17.504Z</time>
      </trkpt>
      <trkpt lat="42.2517" lon="24.43722">
        <ele>266.264839</ele>
        <time>2022-03-07T09:36:05.512Z</time>
      </trkpt>
      <trkpt lat="42.25149" lon="24.43443">
        <ele>271.312476</ele>
        <time>2022-03-07T09:37:02.576Z</time>
      </trkpt>
      <trkpt lat="42.25156" lon="24.43136">
        <ele>269.974327</ele>
        <time>2022-03-07T09:37:56.505Z</time>
      </trkpt>
      <trkpt lat="42.25129" lon="24.42813">
        <ele>266.991554</ele>
        <time>2022-03-07T09:38:52.507Z</time>
      </trkpt>
      <trkpt lat="42.25121" lon="24.4251">
        <ele>268.667624</ele>
        <time>2022-03-07T09:39:46.503Z</time>
      </trkpt>
      <trkpt lat="42.25268" lon="24.42277">
        <ele>277.157275</ele>
        <time>2022-03-07T09:40:42.538Z</time>
      </trkpt>
      <trkpt lat="42.2545" lon="24.4205">
        <ele>274.968199</ele>
        <time>2022-03-07T09:41:42.485Z</time>
      </trkpt>
      <trkpt lat="42.25631" lon="24.41825">
        <ele>273.282749</ele>
        <time>2022-03-07T09:42:40.504Z</time>
      </trkpt>
      <trkpt lat="42.25801" lon="24.41611">
        <ele>276.153517</ele>
        <time>2022-03-07T09:43:37.509Z</time>
      </trkpt>
      <trkpt lat="42.25984" lon="24.41382">
        <ele>273.962751</ele>
        <time>2022-03-07T09:44:37.490Z</time>
      </trkpt>
      <trkpt lat="42.26183" lon="24.41181">
        <ele>276.709552</ele>
        <time>2022-03-07T09:45:37.502Z</time>
      </trkpt>
      <trkpt lat="42.26334" lon="24.40925">
        <ele>283.159309</ele>
        <time>2022-03-07T09:46:35.506Z</time>
      </trkpt>
      <trkpt lat="42.26505" lon="24.40699">
        <ele>281.586184</ele>
        <time>2022-03-07T09:47:31.544Z</time>
      </trkpt>
      <trkpt lat="42.26708" lon="24.40497">
        <ele>278.955079</ele>
        <time>2022-03-07T09:48:31.513Z</time>
      </trkpt>
      <trkpt lat="42.26928" lon="24.40352">
        <ele>279.271942</ele>
        <time>2022-03-07T09:49:31.528Z</time>
      </trkpt>
      <trkpt lat="42.2712" lon="24.40173">
        <ele>286.029374</ele>
        <time>2022-03-07T09:50:28.513Z</time>
      </trkpt>
      <trkpt lat="42.27289" lon="24.4017">
        <ele>283.057957</ele>
        <time>2022-03-07T09:51:28.534Z</time>
      </trkpt>
      <trkpt lat="42.27517" lon="24.40209">
        <ele>283.63546</ele>
        <time>2022-03-07T09:52:29.527Z</time>
      </trkpt>
      <trkpt lat="42.27658" lon="24.40033">
        <ele>292.45462</ele>
        <time>2022-03-07T09:53:29.512Z</time>
      </trkpt>
      <trkpt lat="42.27784" lon="24.39799">
        <ele>299.984387</ele>
        <time>2022-03-07T09:54:29.506Z</time>
      </trkpt>
      <trkpt lat="42.27924" lon="24.39576">
        <ele>293.109174</ele>
        <time>2022-03-07T09:55:29.553Z</time>
      </trkpt>
      <trkpt lat="42.28114" lon="24.39488">
        <ele>285.600879</ele>
        <time>2022-03-07T09:56:26.521Z</time>
      </trkpt>
      <trkpt lat="42.28363" lon="24.39473">
        <ele>283.867508</ele>
        <time>2022-03-07T09:57:26.513Z</time>
      </trkpt>
      <trkpt lat="42.28599" lon="24.39481">
        <ele>285.9691</ele>
        <time>2022-03-07T09:58:24.511Z</time>
      </trkpt>
      <trkpt lat="42.28828" lon="24.39539">
        <ele>287.370912</ele>
        <time>2022-03-07T09:59:24.508Z</time>
      </trkpt>
      <trkpt lat="42.29057" lon="24.39527">
        <ele>291.098151</ele>
        <time>2022-03-07T10:00:19.518Z</time>
      </trkpt>
      <trkpt lat="42.29214" lon="24.39296">
        <ele>292.928854</ele>
        <time>2022-03-07T10:01:15.511Z</time>
      </trkpt>
      <trkpt lat="42.2935" lon="24.39042">
        <ele>291.208179</ele>
        <time>2022-03-07T10:02:10.505Z</time>
      </trkpt>
      <trkpt lat="42.29501" lon="24.38814">
        <ele>293.827264</ele>
        <time>2022-03-07T10:03:06.520Z</time>
      </trkpt>
      <trkpt lat="42.29675" lon="24.38569">
        <ele>291.333685</ele>
        <time>2022-03-07T10:04:06.503Z</time>
      </trkpt>
      <trkpt lat="42.29778" lon="24.38308">
        <ele>290.370577</ele>
        <time>2022-03-07T10:04:56.510Z</time>
      </trkpt>
      <trkpt lat="42.2993" lon="24.38102">
        <ele>291.862011</ele>
        <time>2022-03-07T10:05:59.515Z</time>
      </trkpt>
      <trkpt lat="42.3012" lon="24.37987">
        <ele>291.713092</ele>
        <time>2022-03-07T10:06:59.517Z</time>
      </trkpt>
      <trkpt lat="42.3034" lon="24.37866">
        <ele>293.56666</ele>
        <time>2022-03-07T10:07:58.510Z</time>
      </trkpt>
      <trkpt lat="42.30526" lon="24.37705">
        <ele>291.833295</ele>
        <time>2022-03-07T10:08:51.510Z</time>
      </trkpt>
      <trkpt lat="42.30737" lon="24.37663">
        <ele>298.939091</ele>
        <time>2022-03-07T10:09:53.507Z</time>
      </trkpt>
      <trkpt lat="42.30924" lon="24.37514">
        <ele>300.132881</ele>
        <time>2022-03-07T10:10:54.525Z</time>
      </trkpt>
      <trkpt lat="42.31107" lon="24.3738">
        <ele>300.955454</ele>
        <time>2022-03-07T10:11:56.551Z</time>
      </trkpt>
      <trkpt lat="42.31313" lon="24.37284">
        <ele>304.90259</ele>
        <time>2022-03-07T10:13:05.535Z</time>
      </trkpt>
      <trkpt lat="42.31457" lon="24.37095">
        <ele>308.871489</ele>
        <time>2022-03-07T10:14:20.519Z</time>
      </trkpt>
      <trkpt lat="42.31529" lon="24.36797">
        <ele>305.056585</ele>
        <time>2022-03-07T10:15:03.523Z</time>
      </trkpt>
      <trkpt lat="42.31573" lon="24.3652">
        <ele>304.684834</ele>
        <time>2022-03-07T10:15:57.517Z</time>
      </trkpt>
      <trkpt lat="42.31732" lon="24.36304">
        <ele>306.329911</ele>
        <time>2022-03-07T10:16:57.511Z</time>
      </trkpt>
      <trkpt lat="42.31888" lon="24.3613">
        <ele>310.073364</ele>
        <time>2022-03-07T10:18:14.533Z</time>
      </trkpt>
      <trkpt lat="42.32015" lon="24.35895">
        <ele>312.675802</ele>
        <time>2022-03-07T10:19:15.538Z</time>
      </trkpt>
      <trkpt lat="42.32162" lon="24.3566">
        <ele>310.641583</ele>
        <time>2022-03-07T10:20:15.512Z</time>
      </trkpt>
      <trkpt lat="42.32372" lon="24.35519">
        <ele>311.261815</ele>
        <time>2022-03-07T10:21:13.518Z</time>
      </trkpt>
      <trkpt lat="42.32562" lon="24.35392">
        <ele>311.906631</ele>
        <time>2022-03-07T10:22:00.518Z</time>
      </trkpt>
      <trkpt lat="42.3277" lon="24.3535">
        <ele>317.568326</ele>
        <time>2022-03-07T10:23:01.520Z</time>
      </trkpt>
      <trkpt lat="42.32974" lon="24.35359">
        <ele>325.720102</ele>
        <time>2022-03-07T10:24:29.520Z</time>
      </trkpt>
      <trkpt lat="42.33172" lon="24.35401">
        <ele>332.281351</ele>
        <time>2022-03-07T10:25:53.514Z</time>
      </trkpt>
      <trkpt lat="42.33367" lon="24.35414">
        <ele>340.311155</ele>
        <time>2022-03-07T10:27:33.528Z</time>
      </trkpt>
      <trkpt lat="42.33547" lon="24.3531">
        <ele>344.324469</ele>
        <time>2022-03-07T10:29:13.550Z</time>
      </trkpt>
      <trkpt lat="42.33738" lon="24.35199">
        <ele>347.931096</ele>
        <time>2022-03-07T10:30:37.507Z</time>
      </trkpt>
      <trkpt lat="42.33938" lon="24.35115">
        <ele>350.016695</ele>
        <time>2022-03-07T10:31:47.575Z</time>
      </trkpt>
      <trkpt lat="42.3415" lon="24.35038">
        <ele>351.60129</ele>
        <time>2022-03-07T10:32:51.522Z</time>
      </trkpt>
      <trkpt lat="42.34345" lon="24.34969">
        <ele>354.867899</ele>
        <time>2022-03-07T10:34:12.507Z</time>
      </trkpt>
      <trkpt lat="42.34538" lon="24.34901">
        <ele>359.91677</ele>
        <time>2022-03-07T10:35:38.524Z</time>
      </trkpt>
      <trkpt lat="42.34729" lon="24.3483">
        <ele>364.665878</ele>
        <time>2022-03-07T10:36:58.534Z</time>
      </trkpt>
      <trkpt lat="42.34923" lon="24.3476">
        <ele>370.178694</ele>
        <time>2022-03-07T10:38:24.530Z</time>
      </trkpt>
      <trkpt lat="42.35137" lon="24.34709">
        <ele>372.472404</ele>
        <time>2022-03-07T10:39:40.523Z</time>
      </trkpt>
      <trkpt lat="42.3532" lon="24.34763">
        <ele>379.741358</ele>
        <time>2022-03-07T10:41:05.521Z</time>
      </trkpt>
      <trkpt lat="42.35515" lon="24.34727">
        <ele>389.951017</ele>
        <time>2022-03-07T10:42:49.540Z</time>
      </trkpt>
      <trkpt lat="42.35702" lon="24.34636">
        <ele>395.32652</ele>
        <time>2022-03-07T10:44:14.538Z</time>
      </trkpt>
      <trkpt lat="42.35813" lon="24.34426">
        <ele>402.938537</ele>
        <time>2022-03-07T10:45:39.514Z</time>
      </trkpt>
      <trkpt lat="42.35877" lon="24.34179">
        <ele>410.142897</ele>
        <time>2022-03-07T10:47:20.527Z</time>
      </trkpt>
      <trkpt lat="42.35811" lon="24.33918">
        <ele>413.293346</ele>
        <time>2022-03-07T10:48:31.550Z</time>
      </trkpt>
      <trkpt lat="42.35747" lon="24.33679">
        <ele>419.10272</ele>
        <time>2022-03-07T10:50:15.555Z</time>
      </trkpt>
      <trkpt lat="42.35669" lon="24.33459">
        <ele>413.274761</ele>
        <time>2022-03-07T10:51:37.518Z</time>
      </trkpt>
      <trkpt lat="42.3551" lon="24.33631">
        <ele>394.631635</ele>
        <time>2022-03-07T10:53:07.527Z</time>
      </trkpt>
      <trkpt lat="42.35349" lon="24.33667">
        <ele>380.595074</ele>
        <time>2022-03-07T10:54:33.533Z</time>
      </trkpt>
      <trkpt lat="42.35189" lon="24.33507">
        <ele>364.948381</ele>
        <time>2022-03-07T10:56:02.534Z</time>
      </trkpt>
      <trkpt lat="42.35117" lon="24.33252">
        <ele>347.804354</ele>
        <time>2022-03-07T10:59:46.526Z</time>
      </trkpt>
      <trkpt lat="42.35184" lon="24.32979">
        <ele>343.731247</ele>
        <time>2022-03-07T11:01:02.531Z</time>
      </trkpt>
      <trkpt lat="42.35266" lon="24.32732">
        <ele>340.921593</ele>
        <time>2022-03-07T11:01:58.505Z</time>
      </trkpt>
      <trkpt lat="42.35382" lon="24.3252">
        <ele>344.910198</ele>
        <time>2022-03-07T11:03:19.510Z</time>
      </trkpt>
      <trkpt lat="42.35501" lon="24.32298">
        <ele>351.873618</ele>
        <time>2022-03-07T11:04:57.531Z</time>
      </trkpt>
      <trkpt lat="42.35621" lon="24.32077">
        <ele>356.294197</ele>
        <time>2022-03-07T11:06:25.544Z</time>
      </trkpt>
      <trkpt lat="42.3574" lon="24.31852">
        <ele>361.054362</ele>
        <time>2022-03-07T11:07:50.532Z</time>
      </trkpt>
      <trkpt lat="42.35813" lon="24.31602">
        <ele>365.829601</ele>
        <time>2022-03-07T11:09:18.528Z</time>
      </trkpt>
      <trkpt lat="42.35865" lon="24.31357">
        <ele>366.246498</ele>
        <time>2022-03-07T11:10:19.536Z</time>
      </trkpt>
      <trkpt lat="42.35949" lon="24.31106">
        <ele>375.259843</ele>
        <time>2022-03-07T11:11:28.540Z</time>
      </trkpt>
      <trkpt lat="42.36034" lon="24.30868">
        <ele>389.30145</ele>
        <time>2022-03-07T11:12:58.513Z</time>
      </trkpt>
      <trkpt lat="42.36115" lon="24.30618">
        <ele>399.486877</ele>
        <time>2022-03-07T11:14:44.547Z</time>
      </trkpt>
      <trkpt lat="42.36195" lon="24.30374">
        <ele>406.984113</ele>
        <time>2022-03-07T11:16:20.535Z</time>
      </trkpt>
      <trkpt lat="42.36275" lon="24.30122">
        <ele>407.32739</ele>
        <time>2022-03-07T11:18:01.534Z</time>
      </trkpt>
      <trkpt lat="42.3635" lon="24.29872">
        <ele>405.616924</ele>
        <time>2022-03-07T11:19:40.535Z</time>
      </trkpt>
      <trkpt lat="42.36396" lon="24.29633">
        <ele>414.524158</ele>
        <time>2022-03-07T11:21:35.538Z</time>
      </trkpt>
      <trkpt lat="42.36353" lon="24.29377">
        <ele>426.44879</ele>
        <time>2022-03-07T11:23:37.558Z</time>
      </trkpt>
      <trkpt lat="42.3641" lon="24.29123">
        <ele>435.205365</ele>
        <time>2022-03-07T11:25:25.546Z</time>
      </trkpt>
      <trkpt lat="42.36467" lon="24.28868">
        <ele>446.352307</ele>
        <time>2022-03-07T11:27:34.523Z</time>
      </trkpt>
      <trkpt lat="42.36358" lon="24.28638">
        <ele>451.08054</ele>
        <time>2022-03-07T11:29:16.546Z</time>
      </trkpt>
      <trkpt lat="42.36225" lon="24.28402">
        <ele>447.698964</ele>
        <time>2022-03-07T11:29:56.533Z</time>
      </trkpt>
      <trkpt lat="42.36148" lon="24.28163">
        <ele>449.986505</ele>
        <time>2022-03-07T11:30:56.541Z</time>
      </trkpt>
      <trkpt lat="42.36086" lon="24.27896">
        <ele>453.400132</ele>
        <time>2022-03-07T11:32:02.535Z</time>
      </trkpt>
      <trkpt lat="42.36198" lon="24.27764">
        <ele>456.633895</ele>
        <time>2022-03-07T12:04:00.540Z</time>
      </trkpt>
      <trkpt lat="42.36389" lon="24.27734">
        <ele>462.579935</ele>
        <time>2022-03-07T12:05:27.546Z</time>
      </trkpt>
      <trkpt lat="42.36568" lon="24.27622">
        <ele>466.619153</ele>
        <time>2022-03-07T12:06:51.548Z</time>
      </trkpt>
      <trkpt lat="42.36761" lon="24.2752">
        <ele>470.791701</ele>
        <time>2022-03-07T12:07:58.542Z</time>
      </trkpt>
      <trkpt lat="42.36958" lon="24.27456">
        <ele>478.54529</ele>
        <time>2022-03-07T12:09:30.530Z</time>
      </trkpt>
      <trkpt lat="42.37146" lon="24.27413">
        <ele>486.044872</ele>
        <time>2022-03-07T12:11:07.555Z</time>
      </trkpt>
      <trkpt lat="42.37351" lon="24.27386">
        <ele>493.36769</ele>
        <time>2022-03-07T12:12:44.538Z</time>
      </trkpt>
      <trkpt lat="42.37542" lon="24.27337">
        <ele>498.826072</ele>
        <time>2022-03-07T12:14:29.539Z</time>
      </trkpt>
      <trkpt lat="42.37732" lon="24.27199">
        <ele>497.474778</ele>
        <time>2022-03-07T12:15:38.543Z</time>
      </trkpt>
      <trkpt lat="42.37953" lon="24.27099">
        <ele>493.853582</ele>
        <time>2022-03-07T12:16:20.538Z</time>
      </trkpt>
      <trkpt lat="42.38201" lon="24.26879">
        <ele>475.761231</ele>
        <time>2022-03-07T12:17:00.555Z</time>
      </trkpt>
      <trkpt lat="42.38423" lon="24.26734">
        <ele>463.730473</ele>
        <time>2022-03-07T12:17:34.537Z</time>
      </trkpt>
      <trkpt lat="42.38602" lon="24.26729">
        <ele>468.804189</ele>
        <time>2022-03-07T12:18:33.526Z</time>
      </trkpt>
      <trkpt lat="42.38798" lon="24.26717">
        <ele>477.180233</ele>
        <time>2022-03-07T12:20:10.543Z</time>
      </trkpt>
      <trkpt lat="42.38993" lon="24.26768">
        <ele>482.575819</ele>
        <time>2022-03-07T12:21:27.545Z</time>
      </trkpt>
      <trkpt lat="42.39206" lon="24.26823">
        <ele>481.054628</ele>
        <time>2022-03-07T12:22:21.541Z</time>
      </trkpt>
      <trkpt lat="42.39429" lon="24.26883">
        <ele>483.792494</ele>
        <time>2022-03-07T12:23:16.542Z</time>
      </trkpt>
      <trkpt lat="42.39641" lon="24.26881">
        <ele>484.597826</ele>
        <time>2022-03-07T12:24:30.555Z</time>
      </trkpt>
      <trkpt lat="42.39865" lon="24.26872">
        <ele>482.014804</ele>
        <time>2022-03-07T12:25:13.554Z</time>
      </trkpt>
      <trkpt lat="42.40074" lon="24.2684">
        <ele>489.123024</ele>
        <time>2022-03-07T12:26:32.561Z</time>
      </trkpt>
      <trkpt lat="42.40249" lon="24.26697">
        <ele>486.579434</ele>
        <time>2022-03-07T12:27:23.580Z</time>
      </trkpt>
      <trkpt lat="42.40406" lon="24.26598">
        <ele>482.113518</ele>
        <time>2022-03-07T12:28:04.567Z</time>
      </trkpt>
      <trkpt lat="42.40494" lon="24.26883">
        <ele>477.260946</ele>
        <time>2022-03-07T12:28:44.552Z</time>
      </trkpt>
      <trkpt lat="42.40602" lon="24.27095">
        <ele>474.842672</ele>
        <time>2022-03-07T12:29:28.558Z</time>
      </trkpt>
      <trkpt lat="42.40867" lon="24.27036">
        <ele>461.149302</ele>
        <time>2022-03-07T12:30:02.575Z</time>
      </trkpt>
      <trkpt lat="42.41048" lon="24.26981">
        <ele>453.599495</ele>
        <time>2022-03-07T12:30:22.534Z</time>
      </trkpt>
      <trkpt lat="42.41163" lon="24.27242">
        <ele>443.92962</ele>
        <time>2022-03-07T12:31:02.562Z</time>
      </trkpt>
      <trkpt lat="42.41346" lon="24.27322">
        <ele>430.106915</ele>
        <time>2022-03-07T12:31:46.547Z</time>
      </trkpt>
      <trkpt lat="42.41578" lon="24.27253">
        <ele>415.256359</ele>
        <time>2022-03-07T12:32:26.550Z</time>
      </trkpt>
      <trkpt lat="42.41799" lon="24.27159">
        <ele>402.992109</ele>
        <time>2022-03-07T12:33:06.553Z</time>
      </trkpt>
      <trkpt lat="42.42005" lon="24.27021">
        <ele>394.013678</ele>
        <time>2022-03-07T12:33:46.537Z</time>
      </trkpt>
      <trkpt lat="42.42237" lon="24.26821">
        <ele>388.897891</ele>
        <time>2022-03-07T12:34:24.549Z</time>
      </trkpt>
      <trkpt lat="42.42373" lon="24.26579">
        <ele>390.379628</ele>
        <time>2022-03-07T12:35:15.546Z</time>
      </trkpt>
      <trkpt lat="42.4244" lon="24.26328">
        <ele>392.310685</ele>
        <time>2022-03-07T12:36:06.561Z</time>
      </trkpt>
      <trkpt lat="42.42453" lon="24.26069">
        <ele>403.168916</ele>
        <time>2022-03-07T12:38:03.569Z</time>
      </trkpt>
      <trkpt lat="42.42498" lon="24.25803">
        <ele>411.395567</ele>
        <time>2022-03-07T12:39:57.538Z</time>
      </trkpt>
      <trkpt lat="42.42541" lon="24.25519">
        <ele>415.061577</ele>
        <time>2022-03-07T12:41:14.575Z</time>
      </trkpt>
      <trkpt lat="42.42589" lon="24.25223">
        <ele>413.086653</ele>
        <time>2022-03-07T12:42:18.565Z</time>
      </trkpt>
      <trkpt lat="42.42685" lon="24.24959">
        <ele>410.121715</ele>
        <time>2022-03-07T12:43:08.562Z</time>
      </trkpt>
      <trkpt lat="42.42777" lon="24.24707">
        <ele>405.891515</ele>
        <time>2022-03-07T12:43:48.551Z</time>
      </trkpt>
      <trkpt lat="42.42882" lon="24.24426">
        <ele>402.835045</ele>
        <time>2022-03-07T12:44:28.547Z</time>
      </trkpt>
      <trkpt lat="42.42998" lon="24.24168">
        <ele>407.250083</ele>
        <time>2022-03-07T12:45:19.539Z</time>
      </trkpt>
      <trkpt lat="42.43109" lon="24.23952">
        <ele>403.533087</ele>
        <time>2022-03-07T12:45:59.562Z</time>
      </trkpt>
      <trkpt lat="42.43191" lon="24.23656">
        <ele>401.384797</ele>
        <time>2022-03-07T12:46:57.550Z</time>
      </trkpt>
      <trkpt lat="42.43261" lon="24.23406">
        <ele>407.356065</ele>
        <time>2022-03-07T12:48:03.547Z</time>
      </trkpt>
      <trkpt lat="42.43343" lon="24.23131">
        <ele>407.440135</ele>
        <time>2022-03-07T12:49:09.552Z</time>
      </trkpt>
      <trkpt lat="42.43448" lon="24.2285">
        <ele>406.30109</ele>
        <time>2022-03-07T12:50:01.562Z</time>
      </trkpt>
      <trkpt lat="42.43529" lon="24.22576">
        <ele>408.907299</ele>
        <time>2022-03-07T12:50:50.549Z</time>
      </trkpt>
      <trkpt lat="42.43605" lon="24.22312">
        <ele>409.371974</ele>
        <time>2022-03-07T12:51:41.565Z</time>
      </trkpt>
      <trkpt lat="42.43671" lon="24.22041">
        <ele>411.054761</ele>
        <time>2022-03-07T12:52:34.595Z</time>
      </trkpt>
      <trkpt lat="42.43716" lon="24.2176">
        <ele>413.140923</ele>
        <time>2022-03-07T12:53:25.558Z</time>
      </trkpt>
      <trkpt lat="42.43816" lon="24.21519">
        <ele>412.756274</ele>
        <time>2022-03-07T12:54:22.584Z</time>
      </trkpt>
      <trkpt lat="42.43884" lon="24.21232">
        <ele>412.529776</ele>
        <time>2022-03-07T12:55:16.542Z</time>
      </trkpt>
      <trkpt lat="42.43884" lon="24.20958">
        <ele>415.949323</ele>
        <time>2022-03-07T12:56:19.553Z</time>
      </trkpt>
      <trkpt lat="42.43925" lon="24.20696">
        <ele>421.842916</ele>
        <time>2022-03-07T12:57:25.537Z</time>
      </trkpt>
      <trkpt lat="42.44069" lon="24.20506">
        <ele>423.481111</ele>
        <time>2022-03-07T12:58:25.565Z</time>
      </trkpt>
      <trkpt lat="42.44223" lon="24.2033">
        <ele>425.60469</ele>
        <time>2022-03-07T12:59:38.566Z</time>
      </trkpt>
      <trkpt lat="42.44331" lon="24.20107">
        <ele>423.813252</ele>
        <time>2022-03-07T13:00:32.548Z</time>
      </trkpt>
      <trkpt lat="42.44435" lon="24.19852">
        <ele>426.010698</ele>
        <time>2022-03-07T13:01:26.558Z</time>
      </trkpt>
      <trkpt lat="42.4457" lon="24.19636">
        <ele>427.888271</ele>
        <time>2022-03-07T13:02:33.554Z</time>
      </trkpt>
      <trkpt lat="42.44714" lon="24.19411">
        <ele>429.705822</ele>
        <time>2022-03-07T13:03:33.551Z</time>
      </trkpt>
      <trkpt lat="42.4491" lon="24.19384">
        <ele>439.340085</ele>
        <time>2022-03-07T13:05:06.552Z</time>
      </trkpt>
      <trkpt lat="42.45098" lon="24.19367">
        <ele>451.477608</ele>
        <time>2022-03-07T13:07:12.558Z</time>
      </trkpt>
      <trkpt lat="42.45269" lon="24.19251">
        <ele>461.904368</ele>
        <time>2022-03-07T13:09:15.566Z</time>
      </trkpt>
      <trkpt lat="42.45431" lon="24.19132">
        <ele>472.239202</ele>
        <time>2022-03-07T13:11:10.551Z</time>
      </trkpt>
      <trkpt lat="42.45607" lon="24.19006">
        <ele>482.01115</ele>
        <time>2022-03-07T13:13:15.559Z</time>
      </trkpt>
      <trkpt lat="42.4578" lon="24.18883">
        <ele>495.491134</ele>
        <time>2022-03-07T13:15:21.558Z</time>
      </trkpt>
      <trkpt lat="42.45937" lon="24.1869">
        <ele>502.499952</ele>
        <time>2022-03-07T13:18:40.562Z</time>
      </trkpt>
      <trkpt lat="42.46073" lon="24.18464">
        <ele>507.646142</ele>
        <time>2022-03-07T13:20:00.545Z</time>
      </trkpt>
      <trkpt lat="42.462" lon="24.18258">
        <ele>515.143534</ele>
        <time>2022-03-07T13:21:29.601Z</time>
      </trkpt>
      <trkpt lat="42.46316" lon="24.18062">
        <ele>521.568649</ele>
        <time>2022-03-07T13:23:12.565Z</time>
      </trkpt>
      <trkpt lat="42.4644" lon="24.17853">
        <ele>526.317756</ele>
        <time>2022-03-07T13:24:57.553Z</time>
      </trkpt>
      <trkpt lat="42.46566" lon="24.17646">
        <ele>531.239617</ele>
        <time>2022-03-07T13:26:20.550Z</time>
      </trkpt>
      <trkpt lat="42.46694" lon="24.17438">
        <ele>535.475827</ele>
        <time>2022-03-07T13:27:46.562Z</time>
      </trkpt>
      <trkpt lat="42.46869" lon="24.17321">
        <ele>542.268752</ele>
        <time>2022-03-07T13:29:28.561Z</time>
      </trkpt>
      <trkpt lat="42.47057" lon="24.17264">
        <ele>554.497358</ele>
        <time>2022-03-07T13:31:09.561Z</time>
      </trkpt>
      <trkpt lat="42.4716" lon="24.17465">
        <ele>559.357416</ele>
        <time>2022-03-07T13:33:13.559Z</time>
      </trkpt>
      <trkpt lat="42.47239" lon="24.17682">
        <ele>568.778641</ele>
        <time>2022-03-07T13:35:19.567Z</time>
      </trkpt>
      <trkpt lat="42.47426" lon="24.17688">
        <ele>581.85027</ele>
        <time>2022-03-07T13:37:35.573Z</time>
      </trkpt>
      <trkpt lat="42.47595" lon="24.17808">
        <ele>593.247421</ele>
        <time>2022-03-07T13:39:57.559Z</time>
      </trkpt>
      <trkpt lat="42.47764" lon="24.17927">
        <ele>602.95531</ele>
        <time>2022-03-07T13:42:17.553Z</time>
      </trkpt>
      <trkpt lat="42.47909" lon="24.17747">
        <ele>604.920167</ele>
        <time>2022-03-07T13:43:36.548Z</time>
      </trkpt>
      <trkpt lat="42.48117" lon="24.17668">
        <ele>596.357476</ele>
        <time>2022-03-07T13:44:16.565Z</time>
      </trkpt>
      <trkpt lat="42.48237" lon="24.17998">
        <ele>584.949634</ele>
        <time>2022-03-07T13:44:47.565Z</time>
      </trkpt>
      <trkpt lat="42.48346" lon="24.18202">
        <ele>576.913761</ele>
        <time>2022-03-07T13:45:07.555Z</time>
      </trkpt>
      <trkpt lat="42.48481" lon="24.18494">
        <ele>569.245453</ele>
        <time>2022-03-07T13:45:36.550Z</time>
      </trkpt>
      <trkpt lat="42.48582" lon="24.18767">
        <ele>571.996739</ele>
        <time>2022-03-07T13:46:29.549Z</time>
      </trkpt>
      <trkpt lat="42.48779" lon="24.18787">
        <ele>569.388924</ele>
        <time>2022-03-07T13:47:28.555Z</time>
      </trkpt>
      <trkpt lat="42.49052" lon="24.18698">
        <ele>561.332808</ele>
        <time>2022-03-07T13:48:08.574Z</time>
      </trkpt>
      <trkpt lat="42.49329" lon="24.18675">
        <ele>556.484394</ele>
        <time>2022-03-07T13:48:50.565Z</time>
      </trkpt>
      <trkpt lat="42.4954" lon="24.18709">
        <ele>557.265184</ele>
        <time>2022-03-07T13:49:48.550Z</time>
      </trkpt>
      <trkpt lat="42.4976" lon="24.18723">
        <ele>563.572561</ele>
        <time>2022-03-07T13:50:52.550Z</time>
      </trkpt>
      <trkpt lat="42.49975" lon="24.18757">
        <ele>569.785774</ele>
        <time>2022-03-07T13:52:11.554Z</time>
      </trkpt>
      <trkpt lat="42.50185" lon="24.18804">
        <ele>574.122</ele>
        <time>2022-03-07T13:53:52.598Z</time>
      </trkpt>
      <trkpt lat="42.50361" lon="24.18713">
        <ele>571.954594</ele>
        <time>2022-03-07T13:54:52.566Z</time>
      </trkpt>
      <trkpt lat="42.50552" lon="24.18807">
        <ele>563.976933</ele>
        <time>2022-03-07T13:56:02.573Z</time>
      </trkpt>
      <trkpt lat="42.50658" lon="24.18579">
        <ele>567.363863</ele>
        <time>2022-03-07T13:57:31.586Z</time>
      </trkpt>
      <trkpt lat="42.50839" lon="24.18486">
        <ele>574.442578</ele>
        <time>2022-03-07T13:58:52.615Z</time>
      </trkpt>
      <trkpt lat="42.51032" lon="24.185">
        <ele>579.291502</ele>
        <time>2022-03-07T14:00:17.577Z</time>
      </trkpt>
      <trkpt lat="42.51104" lon="24.183">
        <ele>585.63368</ele>
        <time>2022-03-07T14:01:52.586Z</time>
      </trkpt>
      <trkpt lat="42.51134" lon="24.18226">
        <ele>585.63368</ele>
        <time>2022-03-07T14:10:29.135Z</time>
      </trkpt>
    </trkseg>
  </trk>
</gpx>